Time;durP1;ratioP1;P1;durP2;ratioP2;P2;SDS_P1;SDS_P2;PMS_P1;PMS_P2;Temp;Humidity;BMP_temperature;BMP_pressure;BME280_temperature;BME280_humidity;BME280_pressure;Samples;Min_cycle;Max_cycle;Signal;HPM_P1;HPM_P2
2023/12/11 00:01:16;;;;;;;11.57;3.93;;;6.60;99.90;;;;;;4998905;28;20934;-56
2023/12/11 00:03:43;;;;;;;10.17;3.90;;;6.60;99.90;;;;;;4974124;28;20236;-58
2023/12/11 00:06:11;;;;;;;11.93;3.13;;;6.60;99.90;;;;;;4998472;28;20196;-57
2023/12/11 00:08:38;;;;;;;12.60;3.33;;;6.60;99.90;;;;;;4999138;28;20605;-58
2023/12/11 00:11:08;;;;;;;11.40;3.67;;;6.50;99.90;;;;;;4996163;28;20352;-57
2023/12/11 00:13:35;;;;;;;12.93;3.53;;;6.50;99.90;;;;;;5003577;28;20663;-56
2023/12/11 00:16:02;;;;;;;7.83;3.00;;;6.50;99.90;;;;;;4998945;28;20568;-57
2023/12/11 00:18:29;;;;;;;11.03;3.57;;;6.50;99.90;;;;;;4962482;28;20228;-58
2023/12/11 00:20:56;;;;;;;11.90;3.97;;;6.50;99.90;;;;;;5000667;28;20710;-57
2023/12/11 00:23:23;;;;;;;14.30;3.43;;;6.50;99.90;;;;;;5002532;28;20283;-58
2023/12/11 00:25:50;;;;;;;9.83;3.23;;;6.50;99.90;;;;;;5003859;28;20185;-57
2023/12/11 00:28:18;;;;;;;10.87;3.07;;;6.50;99.90;;;;;;4998137;28;20219;-59
2023/12/11 00:30:45;;;;;;;9.67;3.30;;;6.50;99.90;;;;;;4994873;28;20211;-56
2023/12/11 00:33:12;;;;;;;6.97;3.20;;;6.40;99.90;;;;;;4966653;28;20213;-56
2023/12/11 00:35:39;;;;;;;5.53;2.40;;;6.40;99.90;;;;;;5000352;28;20304;-56
2023/12/11 00:38:06;;;;;;;12.00;2.80;;;6.40;99.90;;;;;;4998707;28;20334;-57
2023/12/11 00:40:33;;;;;;;11.97;3.27;;;6.40;99.90;;;;;;5002168;28;20703;-57
2023/12/11 00:43:00;;;;;;;8.67;2.20;;;6.40;99.90;;;;;;4999153;28;20283;-56
2023/12/11 00:45:27;;;;;;;8.27;1.97;;;6.40;99.90;;;;;;5001891;28;20196;-57
2023/12/11 00:47:54;;;;;;;7.30;2.33;;;6.40;99.90;;;;;;4990309;28;20262;-57
2023/12/11 00:50:22;;;;;;;5.33;2.27;;;6.30;99.90;;;;;;4986681;28;20193;-58
2023/12/11 00:52:49;;;;;;;6.80;2.20;;;6.40;99.90;;;;;;4999964;28;20189;-57
2023/12/11 00:55:16;;;;;;;9.57;2.27;;;6.30;99.90;;;;;;4998953;28;20276;-58
2023/12/11 00:57:43;;;;;;;6.77;2.07;;;6.30;99.90;;;;;;5002455;28;20223;-58
2023/12/11 01:00:10;;;;;;;6.23;1.90;;;6.30;99.90;;;;;;4998428;28;20278;-57
2023/12/11 01:02:41;;;;;;;5.40;2.00;;;6.30;99.90;;;;;;5001479;28;20200;-57
2023/12/11 01:05:09;;;;;;;5.87;1.60;;;6.30;99.90;;;;;;4960597;28;20227;-57
2023/12/11 01:07:35;;;;;;;4.70;1.63;;;6.30;99.90;;;;;;4997316;28;20237;-59
2023/12/11 01:10:03;;;;;;;3.17;1.50;;;6.30;99.90;;;;;;4997481;28;20230;-55
2023/12/11 01:12:30;;;;;;;7.53;1.43;;;6.30;99.90;;;;;;5001665;28;20185;-56
2023/12/11 01:14:57;;;;;;;4.57;1.43;;;6.30;99.90;;;;;;5000911;28;20192;-57
2023/12/11 01:17:24;;;;;;;4.03;1.53;;;6.30;99.90;;;;;;5002356;28;20267;-56
2023/12/11 01:19:52;;;;;;;4.00;1.60;;;6.30;99.90;;;;;;4960812;28;20217;-57
2023/12/11 01:22:19;;;;;;;5.03;1.80;;;6.30;99.90;;;;;;5001652;28;20193;-57
2023/12/11 01:24:46;;;;;;;11.77;2.27;;;6.30;99.90;;;;;;4998356;28;20188;-57
2023/12/11 01:27:13;;;;;;;3.90;1.40;;;6.30;99.90;;;;;;5001882;28;20294;-57
2023/12/11 01:29:40;;;;;;;5.57;1.53;;;6.30;99.90;;;;;;4998104;28;20189;-57
2023/12/11 01:32:07;;;;;;;4.53;2.00;;;6.30;99.90;;;;;;5001658;28;20307;-57
2023/12/11 01:34:34;;;;;;;6.50;1.57;;;6.30;99.90;;;;;;4977324;28;20649;-56
2023/12/11 01:37:03;;;;;;;4.90;2.20;;;6.30;99.90;;;;;;4976539;28;20241;-58
2023/12/11 01:39:30;;;;;;;2.93;1.70;;;6.30;99.90;;;;;;4999304;28;20290;-56
2023/12/11 01:41:58;;;;;;;3.40;1.70;;;6.30;99.90;;;;;;4998950;28;20184;-57
2023/12/11 01:44:25;;;;;;;9.17;2.40;;;6.30;99.90;;;;;;5001432;28;20185;-57
2023/12/11 01:46:53;;;;;;;3.50;1.70;;;6.30;99.90;;;;;;4998793;28;20205;-58
2023/12/11 01:49:20;;;;;;;5.90;1.87;;;6.30;99.90;;;;;;5002143;28;20193;-58
2023/12/11 01:51:48;;;;;;;7.60;1.97;;;6.30;99.90;;;;;;4961558;28;20765;-57
2023/12/11 01:54:19;;;;;;;6.40;1.77;;;6.30;99.90;;;;;;4999704;28;20628;-58
2023/12/11 01:56:46;;;;;;;6.30;1.87;;;6.30;99.90;;;;;;4991953;28;20208;-54
2023/12/11 01:59:14;;;;;;;4.87;1.90;;;6.40;99.90;;;;;;4998281;28;20213;-56
2023/12/11 02:01:41;;;;;;;5.67;2.20;;;6.40;99.90;;;;;;4993843;28;20275;-58
2023/12/11 02:04:08;;;;;;;8.00;2.80;;;6.40;99.90;;;;;;4997636;28;20501;-58
2023/12/11 02:06:35;;;;;;;8.37;2.10;;;6.30;99.90;;;;;;4967488;28;20220;-56
2023/12/11 02:09:03;;;;;;;5.97;2.60;;;6.40;99.90;;;;;;4997714;28;20194;-56
2023/12/11 02:11:32;;;;;;;5.07;2.30;;;6.40;99.90;;;;;;4999063;28;20247;-58
2023/12/11 02:13:59;;;;;;;7.37;2.40;;;6.40;99.90;;;;;;4998484;28;20199;-56
2023/12/11 02:16:26;;;;;;;8.77;2.57;;;6.40;99.90;;;;;;5000761;28;20217;-56
2023/12/11 02:18:53;;;;;;;6.10;2.60;;;6.40;99.90;;;;;;4998520;28;20193;-55
2023/12/11 02:21:20;;;;;;;4.37;2.80;;;6.40;99.90;;;;;;4970898;28;20710;-56
2023/12/11 02:23:54;;;;;;;10.90;3.23;;;6.40;99.90;;;;;;4990059;28;20307;-56
2023/12/11 02:26:22;;;;;;;7.30;3.27;;;6.40;99.90;;;;;;4996257;28;20208;-58
2023/12/11 02:28:49;;;;;;;6.90;3.30;;;6.40;99.90;;;;;;4993715;28;20199;-58
2023/12/11 02:31:16;;;;;;;8.53;4.33;;;6.40;99.90;;;;;;4997283;28;20765;-56
2023/12/11 02:33:43;;;;;;;8.63;4.13;;;6.50;99.90;;;;;;4991548;28;20978;-57
2023/12/11 02:36:10;;;;;;;10.03;4.40;;;6.50;99.90;;;;;;4995904;28;20285;-58
2023/12/11 02:38:37;;;;;;;12.70;5.50;;;6.50;99.90;;;;;;4968989;28;20205;-56
2023/12/11 02:41:05;;;;;;;9.50;4.93;;;6.60;99.90;;;;;;5000525;28;20306;-58
2023/12/11 02:43:33;;;;;;;11.83;5.30;;;6.60;99.90;;;;;;4997961;28;20553;-58
2023/12/11 02:46:00;;;;;;;9.57;6.50;;;6.70;99.90;;;;;;4997611;28;20696;-56
2023/12/11 02:48:27;;;;;;;11.73;6.17;;;6.80;99.90;;;;;;5000209;28;20214;-56
2023/12/11 02:50:54;;;;;;;11.00;5.77;;;6.90;99.90;;;;;;5000251;28;20203;-57
2023/12/11 02:53:21;;;;;;;15.60;6.80;;;7.00;99.90;;;;;;4963909;28;20208;-58
2023/12/11 02:55:48;;;;;;;9.23;6.00;;;7.10;99.90;;;;;;5002398;28;20778;-56
2023/12/11 02:58:15;;;;;;;12.20;6.27;;;7.10;99.90;;;;;;5001318;28;20216;-58
2023/12/11 03:00:43;;;;;;;10.97;7.00;;;7.10;99.90;;;;;;5003676;28;20593;-58
2023/12/11 03:03:10;;;;;;;12.27;5.93;;;7.10;99.90;;;;;;4997665;28;20195;-58
2023/12/11 03:05:37;;;;;;;13.20;7.27;;;7.10;99.90;;;;;;5001883;28;20736;-57
2023/12/11 03:08:05;;;;;;;15.83;7.03;;;7.20;99.90;;;;;;4958217;28;20216;-57
2023/12/11 03:10:32;;;;;;;18.13;7.13;;;7.20;99.90;;;;;;4999456;28;20200;-57
2023/12/11 03:12:59;;;;;;;12.30;6.13;;;7.30;99.90;;;;;;5002126;28;20189;-57
2023/12/11 03:15:26;;;;;;;15.57;6.60;;;7.30;99.90;;;;;;5000977;28;20192;-57
2023/12/11 03:17:55;;;;;;;14.73;7.20;;;7.30;99.90;;;;;;5001481;28;20209;-57
2023/12/11 03:20:22;;;;;;;12.17;7.03;;;7.30;99.90;;;;;;5005336;28;20271;-58
2023/12/11 03:22:49;;;;;;;14.73;6.30;;;7.40;99.90;;;;;;4971600;28;20209;-58
2023/12/11 03:25:15;;;;;;;16.67;7.67;;;7.50;99.90;;;;;;5004989;28;20199;-58
2023/12/11 03:27:42;;;;;;;13.30;6.40;;;7.40;99.90;;;;;;5001356;28;20244;-55
2023/12/11 03:30:10;;;;;;;16.47;6.60;;;7.50;99.90;;;;;;5004620;28;20686;-56
2023/12/11 03:32:37;;;;;;;13.10;7.03;;;7.50;99.90;;;;;;5002360;28;20425;-57
2023/12/11 03:35:06;;;;;;;17.77;6.47;;;7.50;99.90;;;;;;5004345;28;20203;-58
2023/12/11 03:37:33;;;;;;;17.13;6.90;;;7.50;99.90;;;;;;5000612;28;20263;-56
2023/12/11 03:40:00;;;;;;;15.80;7.67;;;7.60;99.90;;;;;;4963136;28;20219;-57
2023/12/11 03:42:28;;;;;;;13.73;6.70;;;7.50;99.90;;;;;;5000941;28;20633;-56
2023/12/11 03:44:57;;;;;;;17.80;6.43;;;7.50;99.90;;;;;;5002657;28;20934;-58
2023/12/11 03:47:24;;;;;;;15.67;5.93;;;7.60;99.90;;;;;;5003489;28;20406;-56
2023/12/11 03:49:52;;;;;;;12.87;5.33;;;7.60;99.90;;;;;;5001887;28;20188;-58
2023/12/11 03:52:20;;;;;;;15.43;6.03;;;7.70;99.90;;;;;;5003556;28;21006;-56
2023/12/11 03:54:47;;;;;;;15.70;5.93;;;7.70;99.90;;;;;;4964806;28;20957;-57
2023/12/11 03:57:14;;;;;;;14.40;5.73;;;7.70;99.90;;;;;;4999600;28;20220;-57
2023/12/11 03:59:41;;;;;;;16.07;5.10;;;7.70;99.90;;;;;;4999879;28;20263;-57
2023/12/11 04:02:08;;;;;;;9.80;4.93;;;7.70;99.90;;;;;;5003030;28;20548;-58
2023/12/11 04:04:35;;;;;;;12.80;5.17;;;7.70;99.90;;;;;;4996585;28;20659;-57
2023/12/11 04:07:03;;;;;;;16.57;5.03;;;7.80;99.90;;;;;;4999378;28;20220;-57
2023/12/11 04:09:31;;;;;;;15.57;5.63;;;7.80;99.90;;;;;;4969987;28;20209;-57
2023/12/11 04:11:58;;;;;;;17.63;5.13;;;7.80;99.90;;;;;;5002267;28;20204;-56
2023/12/11 04:14:25;;;;;;;16.03;4.60;;;7.80;99.90;;;;;;5003674;28;20330;-55
2023/12/11 04:16:52;;;;;;;13.87;5.40;;;7.90;99.90;;;;;;5001311;28;20220;-56
2023/12/11 04:19:19;;;;;;;19.13;5.17;;;7.90;99.90;;;;;;5004300;28;20188;-58
2023/12/11 04:21:46;;;;;;;13.20;4.77;;;7.90;99.90;;;;;;5000496;28;20220;-55
2023/12/11 04:24:13;;;;;;;12.83;4.03;;;7.90;99.90;;;;;;5004033;28;20200;-57
2023/12/11 04:26:41;;;;;;;15.97;3.97;;;7.90;99.90;;;;;;4966674;28;20691;-56
2023/12/11 04:29:08;;;;;;;21.13;5.43;;;7.90;99.90;;;;;;5003240;28;20200;-54
2023/12/11 04:31:35;;;;;;;17.83;3.80;;;7.90;99.90;;;;;;4993896;28;20193;-56
2023/12/11 04:34:03;;;;;;;15.70;3.87;;;8.00;99.90;;;;;;4999631;28;20222;-55
2023/12/11 04:36:29;;;;;;;18.60;3.87;;;8.00;99.90;;;;;;5000450;28;20208;-57
2023/12/11 04:38:56;;;;;;;19.77;4.53;;;8.10;99.90;;;;;;4997647;28;20212;-56
2023/12/11 04:41:23;;;;;;;21.23;4.10;;;8.10;99.90;;;;;;4973653;28;20213;-56
2023/12/11 04:43:52;;;;;;;24.07;4.17;;;8.10;99.90;;;;;;5001556;28;20193;-55
2023/12/11 04:46:18;;;;;;;19.30;4.50;;;8.10;99.90;;;;;;5000428;28;20203;-58
2023/12/11 04:48:45;;;;;;;25.40;5.10;;;8.10;99.90;;;;;;4996712;28;20259;-55
2023/12/11 04:51:12;;;;;;;21.40;5.10;;;8.10;99.90;;;;;;4999519;28;20203;-57
2023/12/11 04:53:39;;;;;;;26.53;4.67;;;8.10;99.90;;;;;;4995766;28;20198;-57
2023/12/11 04:56:07;;;;;;;18.93;3.33;;;8.10;99.90;;;;;;4969852;28;20283;-56
2023/12/11 04:58:34;;;;;;;29.37;4.37;;;8.10;99.90;;;;;;4998810;28;20626;-57
2023/12/11 05:01:02;;;;;;;21.60;4.67;;;8.10;99.90;;;;;;5000396;28;20240;-57
2023/12/11 05:03:29;;;;;;;17.07;4.43;;;8.10;99.90;;;;;;5000159;28;20247;-56
2023/12/11 05:05:56;;;;;;;27.37;4.37;;;8.10;99.90;;;;;;4989486;28;20200;-57
2023/12/11 05:08:23;;;;;;;25.17;4.73;;;8.10;99.90;;;;;;4999289;28;20216;-57
2023/12/11 05:10:50;;;;;;;16.97;4.20;;;8.10;99.90;;;;;;4991363;28;20193;-58
2023/12/11 05:13:17;;;;;;;20.37;3.97;;;8.10;99.90;;;;;;4965764;28;20224;-54
2023/12/11 05:15:44;;;;;;;20.77;5.47;;;8.10;99.90;;;;;;4997483;28;20193;-57
2023/12/11 05:18:13;;;;;;;18.27;4.47;;;8.10;99.90;;;;;;4984947;28;20243;-58
2023/12/11 05:20:40;;;;;;;19.80;3.57;;;8.20;99.90;;;;;;4996303;28;20730;-56
2023/12/11 05:23:07;;;;;;;28.00;4.43;;;8.10;99.90;;;;;;4988330;28;20592;-57
2023/12/11 05:25:33;;;;;;;22.37;3.67;;;8.20;99.90;;;;;;4988235;28;20212;-58
2023/12/11 05:28:00;;;;;;;24.17;3.97;;;8.20;99.90;;;;;;4963930;28;20217;-57
2023/12/11 05:30:28;;;;;;;17.67;3.87;;;8.20;99.90;;;;;;4998592;28;20181;-57
2023/12/11 05:32:55;;;;;;;22.30;3.70;;;8.20;99.90;;;;;;5001283;28;20640;-56
2023/12/11 05:35:23;;;;;;;19.60;4.03;;;8.20;99.90;;;;;;4995283;28;20206;-57
2023/12/11 05:37:50;;;;;;;27.53;4.90;;;8.20;99.90;;;;;;5001854;28;20213;-57
2023/12/11 05:40:17;;;;;;;31.37;5.63;;;8.20;99.90;;;;;;4989980;28;20240;-58
2023/12/11 05:42:44;;;;;;;21.43;3.87;;;8.20;99.90;;;;;;4962308;28;20560;-57
2023/12/11 05:45:11;;;;;;;29.37;5.43;;;8.20;99.90;;;;;;4995415;28;20937;-56
2023/12/11 05:47:38;;;;;;;30.60;6.07;;;8.20;99.90;;;;;;5001747;28;20312;-61
2023/12/11 05:50:06;;;;;;;27.90;4.87;;;8.20;99.90;;;;;;4991527;28;20211;-57
2023/12/11 05:52:34;;;;;;;33.17;6.13;;;8.20;99.90;;;;;;4992982;28;20194;-56
2023/12/11 05:55:01;;;;;;;32.00;5.67;;;8.20;99.90;;;;;;4991149;28;20205;-56
2023/12/11 05:57:28;;;;;;;27.90;4.93;;;8.20;99.90;;;;;;4962631;28;20220;-58
2023/12/11 05:59:55;;;;;;;25.10;4.63;;;8.20;99.90;;;;;;4997532;28;20580;-57
2023/12/11 06:02:23;;;;;;;24.27;5.07;;;8.20;99.90;;;;;;5000756;28;20301;-57
2023/12/11 06:04:50;;;;;;;25.63;5.67;;;8.20;99.90;;;;;;5002257;28;20216;-56
2023/12/11 06:07:17;;;;;;;26.40;4.83;;;8.20;99.90;;;;;;4990516;28;20621;-56
2023/12/11 06:09:45;;;;;;;28.27;5.20;;;8.20;99.90;;;;;;4992764;28;20200;-56
2023/12/11 06:12:12;;;;;;;28.83;6.33;;;8.20;99.90;;;;;;4991191;28;20287;-58
2023/12/11 06:14:40;;;;;;;24.07;5.33;;;8.30;99.90;;;;;;4971293;28;20204;-58
2023/12/11 06:17:08;;;;;;;23.93;5.40;;;8.20;99.90;;;;;;4992180;28;20213;-56
2023/12/11 06:19:35;;;;;;;31.53;5.50;;;8.30;99.90;;;;;;4995124;28;20232;-57
2023/12/11 06:22:02;;;;;;;25.00;5.20;;;8.30;99.90;;;;;;4990478;28;20279;-56
2023/12/11 06:24:29;;;;;;;31.43;5.73;;;8.30;99.90;;;;;;4995760;28;20197;-54
2023/12/11 06:26:57;;;;;;;24.97;5.13;;;8.30;99.90;;;;;;4990286;28;20632;-56
2023/12/11 06:29:24;;;;;;;23.43;5.53;;;8.20;99.90;;;;;;4959529;28;20213;-56
2023/12/11 06:31:51;;;;;;;27.30;5.00;;;8.30;99.90;;;;;;4994664;28;20189;-59
2023/12/11 06:34:18;;;;;;;25.20;5.77;;;8.30;99.90;;;;;;4996268;28;20271;-51
2023/12/11 06:36:45;;;;;;;38.70;6.47;;;8.20;99.90;;;;;;4981151;28;20227;-53
2023/12/11 06:39:12;;;;;;;26.90;6.13;;;8.20;99.90;;;;;;5000947;28;20667;-50
2023/12/11 06:41:39;;;;;;;34.43;5.97;;;8.20;99.90;;;;;;4997826;28;20231;-51
2023/12/11 06:44:08;;;;;;;27.67;6.53;;;8.20;99.90;;;;;;4981630;28;20863;-54
2023/12/11 06:46:36;;;;;;;27.13;5.67;;;8.20;99.90;;;;;;4970027;28;20272;-54
2023/12/11 06:49:04;;;;;;;27.10;5.70;;;8.20;99.90;;;;;;4994375;28;20921;-53
2023/12/11 06:51:30;;;;;;;33.73;6.70;;;8.20;99.90;;;;;;4999844;28;20291;-54
2023/12/11 06:53:59;;;;;;;35.53;7.10;;;8.20;99.90;;;;;;4981859;28;21343;-52
2023/12/11 06:56:27;;;;;;;42.73;6.77;;;8.20;99.90;;;;;;4992532;28;20244;-58
2023/12/11 06:58:54;;;;;;;26.83;5.47;;;8.20;99.90;;;;;;4988089;28;20212;-51
2023/12/11 07:01:26;;;;;;;23.20;5.90;;;8.20;99.90;;;;;;4964670;28;20224;-51
2023/12/11 07:03:53;;;;;;;24.80;5.63;;;8.20;99.90;;;;;;4990700;28;20188;-53
2023/12/11 07:06:20;;;;;;;30.13;6.57;;;8.20;99.90;;;;;;4996500;28;20201;-51
2023/12/11 07:08:47;;;;;;;31.10;6.07;;;8.10;99.90;;;;;;4995033;28;20192;-50
2023/12/11 07:11:14;;;;;;;34.17;7.70;;;8.10;99.90;;;;;;4997546;28;20246;-50
2023/12/11 07:13:41;;;;;;;30.37;6.87;;;8.10;99.90;;;;;;4984481;28;20201;-58
2023/12/11 07:16:08;;;;;;;23.03;5.10;;;8.10;99.90;;;;;;4969276;28;20197;-52
2023/12/11 07:18:37;;;;;;;19.00;4.93;;;8.10;99.90;;;;;;4994441;28;20208;-58
2023/12/11 07:21:08;;;;;;;19.97;5.17;;;8.10;99.90;;;;;;4994777;28;20937;-53
2023/12/11 07:23:35;;;;;;;21.87;4.73;;;8.10;99.90;;;;;;4978102;28;20266;-59
2023/12/11 07:26:04;;;;;;;21.33;5.40;;;8.10;99.90;;;;;;4996656;28;20212;-52
2023/12/11 07:28:31;;;;;;;26.03;4.67;;;8.00;99.90;;;;;;4980570;28;20236;-56
2023/12/11 07:30:58;;;;;;;18.77;3.97;;;8.10;99.90;;;;;;4983509;28;20209;-59
2023/12/11 07:33:26;;;;;;;25.03;6.00;;;8.10;99.90;;;;;;4967478;28;20210;-55
2023/12/11 07:35:55;;;;;;;24.07;6.33;;;8.00;99.90;;;;;;4984384;28;20209;-55
2023/12/11 07:38:27;;;;;;;23.87;6.17;;;8.10;99.90;;;;;;4985565;28;20873;-51
2023/12/11 07:40:55;;;;;;;20.93;5.80;;;8.10;99.90;;;;;;4989936;28;20228;-55
2023/12/11 07:43:22;;;;;;;31.47;7.20;;;8.20;99.90;;;;;;5008813;28;20203;-55
2023/12/11 07:45:50;;;;;;;23.23;7.40;;;8.20;99.90;;;;;;4981069;28;20215;-55
2023/12/11 07:48:31;;;;;;;25.80;7.07;;;8.20;99.90;;;;;;4970514;28;20243;-54
2023/12/11 07:51:04;;;;;;;24.13;6.80;;;8.20;99.90;;;;;;4999467;28;20198;-54
2023/12/11 07:53:48;;;;;;;20.30;6.03;;;8.20;99.90;;;;;;5001851;28;20200;-54
2023/12/11 07:56:40;;;;;;;26.07;6.50;;;8.30;99.90;;;;;;4997215;28;20212;-52
2023/12/11 07:59:10;;;;;;;21.60;6.90;;;8.20;99.90;;;;;;4993244;28;20247;-52
2023/12/11 08:01:57;;;;;;;34.93;7.43;;;8.30;99.90;;;;;;4988956;28;20698;-54
2023/12/11 08:04:26;;;;;;;35.13;8.53;;;8.30;99.90;;;;;;4967019;28;20551;-54
2023/12/11 08:06:55;;;;;;;34.67;7.20;;;8.30;99.90;;;;;;5000247;28;20220;-56
2023/12/11 08:09:32;;;;;;;27.50;7.33;;;8.30;99.90;;;;;;5002226;28;20726;-55
2023/12/11 08:12:00;;;;;;;25.60;6.43;;;8.30;99.90;;;;;;4981911;28;20652;-56
2023/12/11 08:14:27;;;;;;;22.63;5.73;;;8.30;99.90;;;;;;4992259;28;20208;-54
2023/12/11 08:16:55;;;;;;;13.87;4.00;;;8.30;99.90;;;;;;4983833;28;20263;-57
2023/12/11 08:19:22;;;;;;;15.57;3.93;;;8.30;99.90;;;;;;4959029;28;20214;-55
2023/12/11 08:21:49;;;;;;;13.90;4.10;;;8.30;99.90;;;;;;5004410;28;20213;-55
2023/12/11 08:24:18;;;;;;;19.03;4.83;;;8.30;99.90;;;;;;4986577;28;23275;-57
2023/12/11 08:26:46;;;;;;;15.93;5.80;;;8.40;99.90;;;;;;4993216;28;20232;-58
2023/12/11 08:29:16;;;;;;;27.00;5.77;;;8.30;99.90;;;;;;4988193;28;20209;-57
2023/12/11 08:31:56;;;;;;;15.97;5.23;;;8.40;99.90;;;;;;4993181;28;20800;-56
2023/12/11 08:34:31;;;;;;;16.67;5.43;;;8.40;99.90;;;;;;4956074;28;20220;-53
2023/12/11 08:36:59;;;;;;;23.20;5.47;;;8.40;99.90;;;;;;4997062;28;20243;-53
2023/12/11 08:39:34;;;;;;;16.47;5.10;;;8.40;99.90;;;;;;4992033;28;20208;-53
2023/12/11 08:42:03;;;;;;;15.37;5.00;;;8.30;99.90;;;;;;4986897;28;21096;-50
2023/12/11 08:44:31;;;;;;;20.93;5.57;;;8.40;99.90;;;;;;4989624;28;20212;-51
2023/12/11 08:46:59;;;;;;;21.53;5.33;;;8.40;99.90;;;;;;4983934;28;20616;-52
2023/12/11 08:49:27;;;;;;;21.57;5.60;;;8.30;99.90;;;;;;4990634;28;20254;-51
2023/12/11 08:51:54;;;;;;;16.97;5.27;;;8.40;99.90;;;;;;4968561;28;20201;-54
2023/12/11 08:54:32;;;;;;;17.70;6.07;;;8.40;99.90;;;;;;4997047;28;20189;-53
2023/12/11 08:57:17;;;;;;;15.43;5.77;;;8.40;99.90;;;;;;4985909;28;20271;-53
2023/12/11 08:59:49;;;;;;;13.97;5.47;;;8.40;99.90;;;;;;4995907;28;20356;-52
2023/12/11 09:02:23;;;;;;;17.80;5.63;;;8.50;99.90;;;;;;4987276;28;20225;-54
2023/12/11 09:04:55;;;;;;;19.60;5.40;;;8.50;99.90;;;;;;4991647;28;20288;-52
2023/12/11 09:07:29;;;;;;;20.93;5.80;;;8.50;99.90;;;;;;4978348;28;20220;-54
2023/12/11 09:10:00;;;;;;;27.83;5.53;;;8.50;99.90;;;;;;4986705;28;20774;-56
2023/12/11 09:12:29;;;;;;;17.83;5.67;;;8.50;99.90;;;;;;4990412;28;20245;-52
2023/12/11 09:14:57;;;;;;;20.80;6.20;;;8.40;99.90;;;;;;4997095;28;20193;-52
2023/12/11 09:17:24;;;;;;;17.83;5.97;;;8.50;99.90;;;;;;4991853;28;20220;-54
2023/12/11 09:19:51;;;;;;;26.83;6.60;;;8.50;99.90;;;;;;4992577;28;20686;-55
2023/12/11 09:22:19;;;;;;;19.40;6.17;;;8.50;99.90;;;;;;4953350;28;20232;-54
2023/12/11 09:24:46;;;;;;;24.30;6.37;;;8.50;99.90;;;;;;5002275;28;20197;-57
2023/12/11 09:27:19;;;;;;;18.27;6.60;;;8.50;99.90;;;;;;4983740;28;20224;-54
2023/12/11 09:29:49;;;;;;;22.90;6.53;;;8.50;99.90;;;;;;5002530;28;20193;-55
2023/12/11 09:32:18;;;;;;;12.80;5.87;;;8.50;99.90;;;;;;4984602;28;20189;-54
2023/12/11 09:34:49;;;;;;;23.00;5.93;;;8.50;99.90;;;;;;4994403;28;20212;-54
2023/12/11 09:37:21;;;;;;;27.23;6.50;;;8.50;99.90;;;;;;4948080;28;20963;-55
2023/12/11 09:39:53;;;;;;;23.07;6.00;;;8.50;99.90;;;;;;4997679;28;20288;-56
2023/12/11 09:42:29;;;;;;;20.47;6.20;;;8.60;99.90;;;;;;4988372;28;22590;-53
2023/12/11 09:45:03;;;;;;;22.37;6.33;;;8.60;99.90;;;;;;4991978;28;20244;-54
2023/12/11 09:47:40;;;;;;;15.80;4.70;;;8.60;99.90;;;;;;4990717;28;21008;-53
2023/12/11 09:50:09;;;;;;;14.90;5.63;;;8.60;99.90;;;;;;4986880;28;20200;-55
2023/12/11 09:52:41;;;;;;;23.27;5.23;;;8.60;99.90;;;;;;4972944;28;20189;-55
2023/12/11 09:55:21;;;;;;;15.87;5.10;;;8.60;99.90;;;;;;5011274;28;20215;-52
2023/12/11 09:57:58;;;;;;;14.50;5.17;;;8.60;99.90;;;;;;4987479;28;20216;-58
2023/12/11 10:00:51;;;;;;;20.13;4.83;;;8.70;99.90;;;;;;4994498;28;20235;-51
2023/12/11 10:03:40;;;;;;;23.73;5.33;;;8.70;99.90;;;;;;4986786;28;20227;-55
2023/12/11 10:06:09;;;;;;;17.83;5.10;;;8.70;99.90;;;;;;4977654;28;20290;-57
2023/12/11 10:08:42;;;;;;;25.47;5.27;;;8.70;99.90;;;;;;4967907;28;20207;-51
2023/12/11 10:11:17;;;;;;;15.27;5.70;;;8.80;99.90;;;;;;4995700;28;20641;-55
2023/12/11 10:13:51;;;;;;;18.47;5.60;;;8.80;99.90;;;;;;4988787;28;20204;-56
2023/12/11 10:16:33;;;;;;;26.33;5.70;;;8.80;99.90;;;;;;4989877;28;20200;-52
2023/12/11 10:19:04;;;;;;;17.70;5.30;;;8.90;99.90;;;;;;4987690;28;20666;-56
2023/12/11 10:21:40;;;;;;;22.90;6.37;;;8.90;99.90;;;;;;4992191;28;20201;-50
2023/12/11 10:24:14;;;;;;;22.13;6.33;;;8.90;99.90;;;;;;4949050;28;20212;-56
2023/12/11 10:26:48;;;;;;;16.93;6.07;;;8.90;99.90;;;;;;4999494;28;20228;-54
2023/12/11 10:29:23;;;;;;;20.37;6.60;;;9.00;99.90;;;;;;4987488;28;20395;-56
2023/12/11 10:32:01;;;;;;;26.63;6.27;;;9.00;99.90;;;;;;4990936;28;20278;-56
2023/12/11 10:34:45;;;;;;;20.47;5.70;;;9.00;99.90;;;;;;4993148;28;20215;-57
2023/12/11 10:37:14;;;;;;;24.90;6.57;;;9.10;99.90;;;;;;4977105;28;20223;-56
2023/12/11 10:40:11;;;;;;;22.87;6.60;;;9.10;99.90;;;;;;4965718;28;20693;-55
2023/12/11 10:42:38;;;;;;;23.17;6.30;;;9.20;99.90;;;;;;5000566;28;20220;-53
2023/12/11 10:45:07;;;;;;;17.40;5.97;;;9.20;99.90;;;;;;4989646;28;20208;-56
2023/12/11 10:47:37;;;;;;;14.83;4.73;;;9.30;99.90;;;;;;4998875;28;20274;-56
2023/12/11 10:50:15;;;;;;;26.13;5.60;;;9.20;99.90;;;;;;4985185;28;20220;-53
2023/12/11 10:52:44;;;;;;;28.13;6.03;;;9.30;99.90;;;;;;4991395;28;20196;-54
2023/12/11 10:55:29;;;;;;;27.70;6.47;;;9.30;99.90;;;;;;4956433;28;20254;-55
2023/12/11 10:58:06;;;;;;;22.23;5.07;;;9.30;99.90;;;;;;4989379;28;20301;-56
2023/12/11 11:00:39;;;;;;;18.10;4.93;;;9.20;99.90;;;;;;4981215;28;20566;-53
2023/12/11 11:03:22;;;;;;;;;;;;;;;;;;;;;
2023/12/11 11:05:54;;;;;;;21.80;5.17;;;9.20;99.90;;;;;;4999890;28;20204;-57
2023/12/11 11:08:41;;;;;;;19.20;4.90;;;9.20;99.90;;;;;;4988431;28;20307;-56
2023/12/11 11:11:16;;;;;;;15.10;3.93;;;9.20;99.90;;;;;;4968842;28;20579;-55
2023/12/11 11:14:09;;;;;;;17.90;5.13;;;9.20;99.90;;;;;;4995727;28;20192;-57
2023/12/11 11:16:53;;;;;;;22.33;4.67;;;9.20;99.90;;;;;;4990122;28;20283;-50
2023/12/11 11:19:21;;;;;;;14.47;3.50;;;9.30;99.90;;;;;;4983693;28;20256;-58
2023/12/11 11:22:21;;;;;;;15.63;4.27;;;9.30;99.90;;;;;;4998371;28;20338;-55
2023/12/11 11:24:49;;;;;;;16.83;3.90;;;9.40;99.90;;;;;;4988608;28;20193;-56
2023/12/11 11:27:42;;;;;;;14.87;3.60;;;9.40;99.90;;;;;;4970474;28;20295;-54
2023/12/11 11:30:10;;;;;;;13.03;3.57;;;9.40;99.90;;;;;;4977470;28;20681;-55
2023/12/11 11:32:54;;;;;;;15.07;4.20;;;9.50;99.90;;;;;;4991122;28;20223;-56
2023/12/11 11:35:54;;;;;;;20.10;4.30;;;9.60;99.90;;;;;;4993280;28;20456;-54
2023/12/11 11:38:55;;;;;;;18.27;4.17;;;9.60;99.90;;;;;;5000186;28;20219;-53
2023/12/11 11:41:24;;;;;;;15.70;3.70;;;9.70;99.90;;;;;;4991171;28;20206;-52
2023/12/11 11:44:04;;;;;;;13.27;3.50;;;9.70;99.90;;;;;;4974912;28;20212;-49
2023/12/11 11:46:50;;;;;;;11.60;4.03;;;9.70;99.90;;;;;;4998737;28;20242;-56
2023/12/11 11:49:35;;;;;;;19.80;4.20;;;9.70;99.90;;;;;;4990188;28;21104;-54
2023/12/11 11:52:12;;;;;;;11.03;3.00;;;9.70;99.90;;;;;;4986737;28;20208;-57
2023/12/11 11:54:40;;;;;;;9.27;3.77;;;9.60;99.90;;;;;;4990124;28;20733;-54
2023/12/11 11:57:22;;;;;;;11.13;4.03;;;9.60;99.90;;;;;;4972815;28;20634;-57
2023/12/11 11:59:54;;;;;;;12.30;4.10;;;9.60;99.90;;;;;;5002224;28;20256;-53
2023/12/11 12:02:45;;;;;;;8.87;4.60;;;9.60;99.90;;;;;;4990477;28;20217;-56
2023/12/11 12:05:16;;;;;;;15.67;4.63;;;9.60;99.90;;;;;;4983954;28;20976;-55
2023/12/11 12:07:56;;;;;;;11.67;4.20;;;9.60;99.90;;;;;;4999039;28;20654;-54
2023/12/11 12:10:27;;;;;;;14.17;4.30;;;9.60;99.90;;;;;;4989375;28;20922;-55
2023/12/11 12:12:57;;;;;;;14.00;4.37;;;9.60;99.90;;;;;;4995013;28;20200;-52
2023/12/11 12:15:25;;;;;;;19.17;5.60;;;9.60;99.90;;;;;;4970747;28;20201;-50
2023/12/11 12:17:52;;;;;;;13.93;4.33;;;9.60;99.90;;;;;;4982190;28;20236;-56
2023/12/11 12:20:20;;;;;;;9.43;4.57;;;9.60;99.90;;;;;;4986982;28;20942;-53
2023/12/11 12:23:02;;;;;;;11.57;3.97;;;9.50;99.90;;;;;;4998557;28;20196;-56
2023/12/11 12:25:31;;;;;;;11.70;4.33;;;9.50;99.90;;;;;;4995746;28;20185;-52
2023/12/11 12:28:01;;;;;;;12.37;3.40;;;9.50;99.90;;;;;;4988926;28;20233;-56
2023/12/11 12:30:28;;;;;;;12.97;4.20;;;9.50;99.90;;;;;;4961478;28;20201;-55
2023/12/11 12:32:56;;;;;;;9.20;4.03;;;9.60;99.90;;;;;;4992573;28;20292;-57
2023/12/11 12:35:24;;;;;;;13.47;3.83;;;9.50;99.90;;;;;;4989601;28;20201;-56
2023/12/11 12:37:51;;;;;;;11.63;4.70;;;9.60;99.90;;;;;;4984234;28;20209;-55
2023/12/11 12:40:20;;;;;;;8.13;4.10;;;9.50;99.90;;;;;;4999115;28;20200;-56
2023/12/11 12:42:47;;;;;;;7.93;3.23;;;9.50;99.90;;;;;;4987780;28;20221;-54
2023/12/11 12:45:25;;;;;;;8.43;4.10;;;9.60;99.90;;;;;;4964772;28;20306;-55
2023/12/11 12:47:52;;;;;;;9.63;4.10;;;9.60;99.90;;;;;;4998021;28;20223;-56
2023/12/11 12:50:20;;;;;;;10.03;3.70;;;9.70;99.90;;;;;;4988569;28;20201;-53
2023/12/11 12:52:47;;;;;;;14.77;3.77;;;9.60;99.90;;;;;;4994894;28;20193;-54
2023/12/11 12:55:14;;;;;;;10.70;3.87;;;9.60;99.90;;;;;;4988994;28;20205;-54
2023/12/11 12:57:43;;;;;;;10.47;3.40;;;9.60;99.90;;;;;;4990457;28;20294;-54
2023/12/11 13:00:18;;;;;;;9.13;3.90;;;9.60;99.90;;;;;;4969563;28;20223;-58
2023/12/11 13:02:50;;;;;;;11.73;4.00;;;9.60;99.90;;;;;;4994047;28;20220;-55
2023/12/11 13:05:18;;;;;;;10.83;3.93;;;9.60;99.90;;;;;;4991406;28;20217;-52